CMP391 MROC-MGGT
Flight info
| Callsign | CMP391 |
|---|---|
| Flight time | 1h 24m |
| Altitude | 36000 |
| Route | NANJO3U ULAPO DCT TUKOR DCT KAPAN KAPAN2C |
| Aircraft | B738/M-SDE2E3FGHIRWXY/LB1 |
Departure
| Time | 2026-05-04 01:43 |
|---|---|
| Airport | Juan Santamaría International Airport (MROC) |
Arrival
| Time | 2026-05-04 03:07 |
|---|---|
| Airport | La Aurora International Airport (MGGT) |
| Time | Latitude | Longitude | Altitude | Speed | Heading |
|---|---|---|---|---|---|
| 2026-05-04 01:26 | 9.99691 | -84.20562 | 3033 ft | 0 kts | 339° |
| 2026-05-04 01:34 | 9.99690 | -84.20562 | 3033 ft | 2 kts | 339° |
| 2026-05-04 01:34 | 9.99675 | -84.20555 | 3035 ft | 2 kts | 337° |
| 2026-05-04 01:34 | 9.99660 | -84.20548 | 3034 ft | 2 kts | 334° |
| 2026-05-04 01:35 | 9.99645 | -84.20540 | 3032 ft | 2 kts | 327° |
| 2026-05-04 01:35 | 9.99632 | -84.20530 | 3032 ft | 2 kts | 306° |
| 2026-05-04 01:35 | 9.99627 | -84.20515 | 3033 ft | 2 kts | 259° |
| 2026-05-04 01:35 | 9.99628 | -84.20507 | 3032 ft | 0 kts | 252° |
| 2026-05-04 01:37 | 9.99628 | -84.20508 | 3032 ft | 1 kts | 252° |
| 2026-05-04 01:37 | 9.99616 | -84.20541 | 3034 ft | 9 kts | 249° |
| 2026-05-04 01:37 | 9.99586 | -84.20622 | 3035 ft | 16 kts | 249° |
| 2026-05-04 01:37 | 9.99539 | -84.20744 | 3033 ft | 21 kts | 249° |
| 2026-05-04 01:38 | 9.99489 | -84.20878 | 3032 ft | 21 kts | 249° |
| 2026-05-04 01:38 | 9.99431 | -84.21034 | 3016 ft | 27 kts | 249° |
| 2026-05-04 01:38 | 9.99361 | -84.21220 | 3002 ft | 27 kts | 249° |
| 2026-05-04 01:38 | 9.99297 | -84.21393 | 2990 ft | 25 kts | 249° |
| 2026-05-04 01:39 | 9.99237 | -84.21554 | 2977 ft | 24 kts | 249° |
| 2026-05-04 01:39 | 9.99180 | -84.21705 | 2969 ft | 23 kts | 249° |
| 2026-05-04 01:39 | 9.99124 | -84.21851 | 2959 ft | 22 kts | 249° |
| 2026-05-04 01:39 | 9.99095 | -84.21949 | 2952 ft | 22 kts | 267° |
| 2026-05-04 01:40 | 9.99098 | -84.22086 | 2947 ft | 16 kts | 247° |
| 2026-05-04 01:40 | 9.99052 | -84.22182 | 2946 ft | 12 kts | 224° |
| 2026-05-04 01:40 | 9.99011 | -84.22200 | 2945 ft | 3 kts | 187° |
| 2026-05-04 01:40 | 9.99009 | -84.22200 | 2945 ft | 0 kts | 185° |
| 2026-05-04 01:41 | 9.98998 | -84.22198 | 2942 ft | 4 kts | 169° |
| 2026-05-04 01:41 | 9.98968 | -84.22189 | 2945 ft | 8 kts | 160° |
| 2026-05-04 01:41 | 9.98918 | -84.22163 | 2943 ft | 2 kts | 120° |
| 2026-05-04 01:41 | 9.98919 | -84.22148 | 2939 ft | 2 kts | 79° |
| 2026-05-04 01:42 | 9.98926 | -84.22126 | 2944 ft | 5 kts | 70° |
| 2026-05-04 01:42 | 9.98941 | -84.22084 | 2943 ft | 14 kts | 70° |
| 2026-05-04 01:42 | 9.99076 | -84.21723 | 2973 ft | 95 kts | 69° |
| 2026-05-04 01:42 | 9.99399 | -84.20869 | 3031 ft | 162 kts | 69° |
| 2026-05-04 01:43 | 9.99830 | -84.19747 | 3849 ft | 172 kts | 68° |
| 2026-05-04 01:43 | 10.00551 | -84.18796 | 4909 ft | 171 kts | 31° |
| 2026-05-04 01:43 | 10.01770 | -84.18530 | 5573 ft | 198 kts | 353° |
| 2026-05-04 01:43 | 10.03077 | -84.19220 | 5827 ft | 229 kts | 322° |
| 2026-05-04 01:44 | 10.04330 | -84.20320 | 6251 ft | 245 kts | 322° |
| 2026-05-04 01:44 | 10.05486 | -84.21621 | 6878 ft | 255 kts | 302° |
| 2026-05-04 01:44 | 10.06236 | -84.23320 | 7350 ft | 269 kts | 292° |
| 2026-05-04 01:44 | 10.06867 | -84.25116 | 8080 ft | 269 kts | 291° |
| 2026-05-04 01:45 | 10.07506 | -84.26960 | 8533 ft | 289 kts | 291° |
| 2026-05-04 01:45 | 10.08206 | -84.28924 | 9158 ft | 300 kts | 292° |
| 2026-05-04 01:45 | 10.09677 | -84.32941 | 10549 ft | 319 kts | 291° |
| 2026-05-04 01:46 | 10.10592 | -84.35082 | 10827 ft | 339 kts | 301° |
| 2026-05-04 01:46 | 10.11926 | -84.37090 | 11449 ft | 345 kts | 307° |
| 2026-05-04 01:46 | 10.13370 | -84.39053 | 12213 ft | 348 kts | 308° |
| 2026-05-04 01:46 | 10.14845 | -84.41015 | 12981 ft | 351 kts | 308° |
| 2026-05-04 01:47 | 10.16335 | -84.42995 | 13702 ft | 355 kts | 308° |
| 2026-05-04 01:47 | 10.17837 | -84.45000 | 14346 ft | 359 kts | 307° |
| 2026-05-04 01:47 | 10.19353 | -84.47036 | 15005 ft | 362 kts | 307° |
| 2026-05-04 01:47 | 10.20875 | -84.49090 | 15675 ft | 364 kts | 307° |
| 2026-05-04 01:48 | 10.22402 | -84.51158 | 16329 ft | 368 kts | 307° |
| 2026-05-04 01:48 | 10.23939 | -84.53247 | 16955 ft | 372 kts | 307° |
| 2026-05-04 01:48 | 10.25493 | -84.55361 | 17585 ft | 375 kts | 307° |
| 2026-05-04 01:48 | 10.27041 | -84.57469 | 18234 ft | 377 kts | 307° |
| 2026-05-04 01:49 | 10.28618 | -84.59619 | 18789 ft | 380 kts | 307° |
| 2026-05-04 01:49 | 10.30208 | -84.61786 | 19285 ft | 384 kts | 307° |
| 2026-05-04 01:49 | 10.31811 | -84.63973 | 19794 ft | 388 kts | 307° |
| 2026-05-04 01:49 | 10.33434 | -84.66187 | 20304 ft | 391 kts | 306° |
| 2026-05-04 01:50 | 10.35067 | -84.68416 | 20798 ft | 395 kts | 306° |
| 2026-05-04 01:50 | 10.36716 | -84.70666 | 21280 ft | 399 kts | 306° |
| 2026-05-04 01:50 | 10.38383 | -84.72943 | 21752 ft | 403 kts | 306° |
| 2026-05-04 01:50 | 10.40043 | -84.75210 | 22188 ft | 407 kts | 306° |
| 2026-05-04 01:51 | 10.41743 | -84.77531 | 22642 ft | 411 kts | 306° |
| 2026-05-04 01:51 | 10.43460 | -84.79876 | 23084 ft | 415 kts | 306° |
| 2026-05-04 01:51 | 10.45195 | -84.82247 | 23512 ft | 419 kts | 306° |
| 2026-05-04 01:51 | 10.46946 | -84.84640 | 23883 ft | 422 kts | 306° |
| 2026-05-04 01:52 | 10.48702 | -84.87041 | 24319 ft | 424 kts | 306° |
| 2026-05-04 01:52 | 10.50470 | -84.89457 | 24648 ft | 428 kts | 306° |
| 2026-05-04 01:52 | 10.52250 | -84.91892 | 25025 ft | 430 kts | 306° |
| 2026-05-04 01:52 | 10.54037 | -84.94336 | 25412 ft | 433 kts | 306° |
| 2026-05-04 01:53 | 10.55838 | -84.96800 | 25779 ft | 435 kts | 306° |
| 2026-05-04 01:53 | 10.57648 | -84.99277 | 26192 ft | 437 kts | 306° |
| 2026-05-04 01:53 | 10.59439 | -85.01728 | 26589 ft | 438 kts | 306° |
| 2026-05-04 01:53 | 10.61263 | -85.04226 | 26903 ft | 442 kts | 306° |
| 2026-05-04 01:54 | 10.63103 | -85.06746 | 27293 ft | 443 kts | 306° |
| 2026-05-04 01:54 | 10.64943 | -85.09266 | 27685 ft | 445 kts | 306° |
| 2026-05-04 01:54 | 10.66801 | -85.11811 | 27959 ft | 450 kts | 306° |
| 2026-05-04 01:54 | 10.68670 | -85.14371 | 28332 ft | 450 kts | 306° |
| 2026-05-04 01:55 | 10.70537 | -85.16930 | 28739 ft | 452 kts | 306° |
| 2026-05-04 01:55 | 10.72416 | -85.19506 | 28998 ft | 455 kts | 306° |
| 2026-05-04 01:55 | 10.74307 | -85.22099 | 29363 ft | 456 kts | 306° |
| 2026-05-04 01:55 | 10.76197 | -85.24692 | 29723 ft | 457 kts | 307° |
| 2026-05-04 01:56 | 10.78099 | -85.27302 | 29958 ft | 461 kts | 307° |
| 2026-05-04 01:56 | 10.80016 | -85.29932 | 30237 ft | 462 kts | 307° |
| 2026-05-04 01:56 | 10.81926 | -85.32553 | 30582 ft | 462 kts | 307° |
| 2026-05-04 01:56 | 10.83839 | -85.35179 | 30848 ft | 463 kts | 307° |
| 2026-05-04 01:57 | 10.85769 | -85.37829 | 31059 ft | 466 kts | 307° |
| 2026-05-04 01:57 | 10.87681 | -85.40456 | 31291 ft | 468 kts | 307° |
| 2026-05-04 01:57 | 10.89623 | -85.43125 | 31530 ft | 469 kts | 307° |
| 2026-05-04 01:57 | 10.91567 | -85.45795 | 31776 ft | 471 kts | 307° |
| 2026-05-04 01:58 | 10.93519 | -85.48479 | 32005 ft | 472 kts | 307° |
| 2026-05-04 01:58 | 10.95482 | -85.51178 | 32233 ft | 474 kts | 307° |
| 2026-05-04 01:58 | 10.97446 | -85.53880 | 32450 ft | 476 kts | 307° |
| 2026-05-04 01:58 | 10.99419 | -85.56595 | 32678 ft | 477 kts | 307° |
| 2026-05-04 01:59 | 11.01364 | -85.59272 | 32966 ft | 476 kts | 307° |
| 2026-05-04 01:59 | 11.03336 | -85.61986 | 33238 ft | 477 kts | 307° |
| 2026-05-04 01:59 | 11.05312 | -85.64706 | 33523 ft | 477 kts | 307° |
| 2026-05-04 01:59 | 11.07282 | -85.67418 | 33808 ft | 477 kts | 306° |
| 2026-05-04 02:00 | 11.09261 | -85.70145 | 34111 ft | 476 kts | 306° |
| 2026-05-04 02:00 | 11.11227 | -85.72853 | 34446 ft | 473 kts | 306° |
| 2026-05-04 02:00 | 11.13156 | -85.75512 | 34768 ft | 472 kts | 306° |
| 2026-05-04 02:00 | 11.15100 | -85.78191 | 35083 ft | 470 kts | 306° |
| 2026-05-04 02:01 | 11.17037 | -85.80863 | 35433 ft | 467 kts | 306° |
| 2026-05-04 02:01 | 11.18965 | -85.83522 | 35774 ft | 465 kts | 306° |
| 2026-05-04 02:01 | 11.20885 | -85.86170 | 36072 ft | 463 kts | 306° |
| 2026-05-04 02:01 | 11.22799 | -85.88812 | 36336 ft | 463 kts | 306° |
| 2026-05-04 02:02 | 11.24709 | -85.91447 | 36609 ft | 462 kts | 306° |
| 2026-05-04 02:02 | 11.26616 | -85.94081 | 36911 ft | 460 kts | 306° |
| 2026-05-04 02:02 | 11.28489 | -85.96667 | 37211 ft | 458 kts | 306° |
| 2026-05-04 02:02 | 11.30383 | -85.99284 | 37487 ft | 457 kts | 306° |
| 2026-05-04 02:03 | 11.32268 | -86.01887 | 37748 ft | 456 kts | 305° |
| 2026-05-04 02:03 | 11.34147 | -86.04485 | 37989 ft | 455 kts | 305° |
| 2026-05-04 02:03 | 11.36027 | -86.07083 | 38255 ft | 454 kts | 305° |
| 2026-05-04 02:03 | 11.37896 | -86.09669 | 38525 ft | 453 kts | 305° |
| 2026-05-04 02:04 | 11.39765 | -86.12253 | 38726 ft | 452 kts | 305° |
| 2026-05-04 02:04 | 11.41630 | -86.14833 | 38870 ft | 453 kts | 305° |
| 2026-05-04 02:04 | 11.43501 | -86.17422 | 39015 ft | 453 kts | 305° |
| 2026-05-04 02:04 | 11.45369 | -86.20008 | 39202 ft | 452 kts | 305° |
| 2026-05-04 02:05 | 11.47212 | -86.22559 | 39379 ft | 452 kts | 305° |
| 2026-05-04 02:05 | 11.49079 | -86.25144 | 39552 ft | 451 kts | 305° |
| 2026-05-04 02:05 | 11.50941 | -86.27724 | 39697 ft | 451 kts | 305° |
| 2026-05-04 02:05 | 11.52800 | -86.30300 | 39857 ft | 451 kts | 305° |
| 2026-05-04 02:06 | 11.56531 | -86.35472 | 39905 ft | 454 kts | 305° |
| 2026-05-04 02:06 | 11.60263 | -86.40647 | 39912 ft | 451 kts | 304° |
| 2026-05-04 02:07 | 11.63964 | -86.45782 | 39915 ft | 448 kts | 304° |
| 2026-05-04 02:07 | 11.67619 | -86.50855 | 39917 ft | 445 kts | 304° |
| 2026-05-04 02:08 | 11.71283 | -86.55944 | 39918 ft | 444 kts | 304° |
| 2026-05-04 02:08 | 11.74937 | -86.61022 | 39923 ft | 443 kts | 304° |
| 2026-05-04 02:09 | 11.78592 | -86.66105 | 39925 ft | 444 kts | 304° |
| 2026-05-04 02:09 | 11.82233 | -86.71169 | 39919 ft | 445 kts | 304° |
| 2026-05-04 02:10 | 11.85907 | -86.76283 | 39921 ft | 447 kts | 304° |
| 2026-05-04 02:10 | 11.89589 | -86.81410 | 39922 ft | 448 kts | 304° |
| 2026-05-04 02:11 | 11.93260 | -86.86525 | 39921 ft | 450 kts | 304° |
| 2026-05-04 02:11 | 11.96966 | -86.91690 | 39922 ft | 451 kts | 304° |
| 2026-05-04 02:12 | 12.00677 | -86.96866 | 39925 ft | 452 kts | 304° |
| 2026-05-04 02:12 | 12.04402 | -87.02064 | 39927 ft | 453 kts | 304° |
| 2026-05-04 02:13 | 12.08127 | -87.07264 | 39924 ft | 453 kts | 304° |
| 2026-05-04 02:13 | 12.11838 | -87.12447 | 39926 ft | 453 kts | 304° |
| 2026-05-04 02:14 | 12.15556 | -87.17644 | 39929 ft | 453 kts | 304° |
| 2026-05-04 02:14 | 12.19275 | -87.22844 | 39929 ft | 452 kts | 304° |
| 2026-05-04 02:15 | 12.22985 | -87.28035 | 39930 ft | 451 kts | 304° |
| 2026-05-04 02:15 | 12.26683 | -87.33212 | 39931 ft | 450 kts | 304° |
| 2026-05-04 02:16 | 12.30374 | -87.38382 | 39930 ft | 449 kts | 304° |
| 2026-05-04 02:16 | 12.34041 | -87.43521 | 39932 ft | 448 kts | 304° |
| 2026-05-04 02:17 | 12.37714 | -87.48671 | 39931 ft | 447 kts | 304° |
| 2026-05-04 02:17 | 12.41379 | -87.53813 | 39936 ft | 446 kts | 304° |
| 2026-05-04 02:18 | 12.45019 | -87.58923 | 39938 ft | 446 kts | 304° |
| 2026-05-04 02:18 | 12.48674 | -87.64056 | 39937 ft | 445 kts | 305° |
| 2026-05-04 02:19 | 12.52320 | -87.69180 | 39938 ft | 445 kts | 305° |
| 2026-05-04 02:19 | 12.55945 | -87.74278 | 39936 ft | 444 kts | 305° |
| 2026-05-04 02:20 | 12.59583 | -87.79395 | 39938 ft | 445 kts | 305° |
| 2026-05-04 02:20 | 12.63227 | -87.84524 | 39939 ft | 445 kts | 305° |
| 2026-05-04 02:21 | 12.66873 | -87.89660 | 39941 ft | 445 kts | 305° |
| 2026-05-04 02:21 | 12.70517 | -87.94795 | 39942 ft | 446 kts | 305° |
| 2026-05-04 02:22 | 12.74162 | -87.99934 | 39940 ft | 446 kts | 305° |
| 2026-05-04 02:22 | 12.77787 | -88.05048 | 39941 ft | 446 kts | 305° |
| 2026-05-04 02:23 | 12.81440 | -88.10205 | 39938 ft | 446 kts | 305° |
| 2026-05-04 02:23 | 12.85092 | -88.15362 | 39940 ft | 446 kts | 305° |
| 2026-05-04 02:24 | 12.88738 | -88.20514 | 39940 ft | 446 kts | 305° |
| 2026-05-04 02:24 | 12.92384 | -88.25670 | 39941 ft | 446 kts | 304° |
| 2026-05-04 02:25 | 12.96003 | -88.30789 | 39939 ft | 446 kts | 304° |
| 2026-05-04 02:25 | 12.99651 | -88.35953 | 39940 ft | 446 kts | 305° |
| 2026-05-04 02:26 | 13.03290 | -88.41107 | 39934 ft | 446 kts | 304° |
| 2026-05-04 02:26 | 13.06911 | -88.46239 | 39928 ft | 446 kts | 304° |
| 2026-05-04 02:27 | 13.10552 | -88.51402 | 39931 ft | 446 kts | 304° |
| 2026-05-04 02:27 | 13.14191 | -88.56564 | 39924 ft | 446 kts | 304° |
| 2026-05-04 02:28 | 13.17209 | -88.60848 | 39925 ft | 446 kts | 304° |
| 2026-05-04 02:28 | 13.20758 | -88.65889 | 39923 ft | 445 kts | 304° |
| 2026-05-04 02:29 | 13.24386 | -88.71045 | 39921 ft | 445 kts | 304° |
| 2026-05-04 02:29 | 13.28032 | -88.76231 | 39338 ft | 453 kts | 304° |
| 2026-05-04 02:30 | 13.29873 | -88.78850 | 38799 ft | 451 kts | 304° |
| 2026-05-04 02:30 | 13.31712 | -88.81466 | 38193 ft | 451 kts | 304° |
| 2026-05-04 02:30 | 13.33545 | -88.84075 | 37555 ft | 451 kts | 304° |
| 2026-05-04 02:30 | 13.35357 | -88.86655 | 36957 ft | 450 kts | 305° |
| 2026-05-04 02:31 | 13.37187 | -88.89261 | 36360 ft | 450 kts | 305° |
| 2026-05-04 02:31 | 13.39002 | -88.91846 | 35940 ft | 446 kts | 305° |
| 2026-05-04 02:31 | 13.40809 | -88.94422 | 35485 ft | 443 kts | 305° |
| 2026-05-04 02:31 | 13.42608 | -88.96985 | 35038 ft | 440 kts | 305° |
| 2026-05-04 02:32 | 13.44396 | -88.99535 | 34576 ft | 438 kts | 305° |
| 2026-05-04 02:32 | 13.46173 | -89.02069 | 34131 ft | 436 kts | 305° |
| 2026-05-04 02:32 | 13.47947 | -89.04601 | 33647 ft | 434 kts | 305° |
| 2026-05-04 02:32 | 13.49705 | -89.07111 | 33180 ft | 431 kts | 306° |
| 2026-05-04 02:33 | 13.51453 | -89.09606 | 32735 ft | 428 kts | 306° |
| 2026-05-04 02:33 | 13.53185 | -89.12080 | 32301 ft | 425 kts | 306° |
| 2026-05-04 02:33 | 13.54889 | -89.14514 | 31876 ft | 422 kts | 306° |
| 2026-05-04 02:33 | 13.56598 | -89.16956 | 31454 ft | 420 kts | 306° |
| 2026-05-04 02:34 | 13.58300 | -89.19388 | 31035 ft | 417 kts | 306° |
| 2026-05-04 02:34 | 13.59991 | -89.21805 | 30599 ft | 415 kts | 306° |
| 2026-05-04 02:34 | 13.61675 | -89.24213 | 30174 ft | 413 kts | 306° |
| 2026-05-04 02:34 | 13.63351 | -89.26611 | 29716 ft | 412 kts | 306° |
| 2026-05-04 02:35 | 13.65014 | -89.28991 | 29238 ft | 408 kts | 306° |
| 2026-05-04 02:35 | 13.66665 | -89.31355 | 28801 ft | 405 kts | 306° |
| 2026-05-04 02:35 | 13.68307 | -89.33705 | 28375 ft | 402 kts | 306° |
| 2026-05-04 02:35 | 13.69916 | -89.36009 | 27955 ft | 400 kts | 306° |
| 2026-05-04 02:36 | 13.71529 | -89.38319 | 27533 ft | 397 kts | 306° |
| 2026-05-04 02:36 | 13.73136 | -89.40621 | 27111 ft | 394 kts | 307° |
| 2026-05-04 02:36 | 13.74731 | -89.42907 | 26696 ft | 392 kts | 307° |
| 2026-05-04 02:36 | 13.76316 | -89.45181 | 26278 ft | 390 kts | 307° |
| 2026-05-04 02:37 | 13.77891 | -89.47439 | 25845 ft | 388 kts | 307° |
| 2026-05-04 02:37 | 13.79462 | -89.49692 | 25437 ft | 387 kts | 307° |
| 2026-05-04 02:37 | 13.81026 | -89.51936 | 25019 ft | 385 kts | 307° |
| 2026-05-04 02:37 | 13.82589 | -89.54179 | 24598 ft | 384 kts | 307° |
| 2026-05-04 02:38 | 13.84143 | -89.56409 | 24185 ft | 383 kts | 307° |
| 2026-05-04 02:38 | 13.85698 | -89.58643 | 23771 ft | 382 kts | 307° |
| 2026-05-04 02:38 | 13.87247 | -89.60867 | 23303 ft | 382 kts | 307° |
| 2026-05-04 02:38 | 13.88786 | -89.63079 | 22869 ft | 379 kts | 307° |
| 2026-05-04 02:39 | 13.90301 | -89.65256 | 22443 ft | 377 kts | 307° |
| 2026-05-04 02:39 | 13.91819 | -89.67438 | 22034 ft | 375 kts | 307° |
| 2026-05-04 02:39 | 13.93334 | -89.69617 | 21623 ft | 372 kts | 307° |
| 2026-05-04 02:39 | 13.94835 | -89.71775 | 21219 ft | 370 kts | 307° |
| 2026-05-04 02:40 | 13.96331 | -89.73927 | 20821 ft | 368 kts | 307° |
| 2026-05-04 02:40 | 13.97816 | -89.76064 | 20423 ft | 366 kts | 307° |
| 2026-05-04 02:40 | 13.99290 | -89.78186 | 20114 ft | 361 kts | 307° |
| 2026-05-04 02:40 | 14.00720 | -89.80247 | 20071 ft | 348 kts | 308° |
| 2026-05-04 02:41 | 14.02101 | -89.82237 | 20059 ft | 335 kts | 308° |
| 2026-05-04 02:41 | 14.03438 | -89.84164 | 20054 ft | 322 kts | 308° |
| 2026-05-04 02:41 | 14.04742 | -89.86041 | 19600 ft | 326 kts | 308° |
| 2026-05-04 02:41 | 14.06054 | -89.87994 | 18726 ft | 346 kts | 306° |
| 2026-05-04 02:42 | 14.07374 | -89.90112 | 18166 ft | 353 kts | 304° |
| 2026-05-04 02:42 | 14.08674 | -89.92249 | 17832 ft | 349 kts | 304° |
| 2026-05-04 02:42 | 14.09952 | -89.94356 | 17529 ft | 345 kts | 304° |
| 2026-05-04 02:42 | 14.11223 | -89.96441 | 17201 ft | 342 kts | 304° |
| 2026-05-04 02:43 | 14.12490 | -89.98511 | 16802 ft | 340 kts | 304° |
| 2026-05-04 02:43 | 14.13752 | -90.00564 | 16291 ft | 338 kts | 304° |
| 2026-05-04 02:43 | 14.15008 | -90.02606 | 15759 ft | 337 kts | 304° |
| 2026-05-04 02:43 | 14.16246 | -90.04617 | 15278 ft | 335 kts | 304° |
| 2026-05-04 02:44 | 14.17499 | -90.06651 | 14895 ft | 335 kts | 304° |
| 2026-05-04 02:44 | 14.18743 | -90.08672 | 14563 ft | 333 kts | 304° |
| 2026-05-04 02:44 | 14.19984 | -90.10690 | 14230 ft | 334 kts | 304° |
| 2026-05-04 02:44 | 14.21228 | -90.12721 | 13895 ft | 334 kts | 303° |
| 2026-05-04 02:45 | 14.22416 | -90.14779 | 13527 ft | 333 kts | 302° |
| 2026-05-04 02:45 | 14.23571 | -90.16843 | 13144 ft | 331 kts | 302° |
| 2026-05-04 02:45 | 14.24715 | -90.18898 | 12815 ft | 328 kts | 302° |
| 2026-05-04 02:45 | 14.25831 | -90.20899 | 12506 ft | 323 kts | 302° |
| 2026-05-04 02:46 | 14.26947 | -90.22893 | 12216 ft | 319 kts | 302° |
| 2026-05-04 02:46 | 14.28052 | -90.24860 | 11938 ft | 315 kts | 302° |
| 2026-05-04 02:46 | 14.29148 | -90.26810 | 11656 ft | 311 kts | 302° |
| 2026-05-04 02:46 | 14.30229 | -90.28732 | 11408 ft | 308 kts | 302° |
| 2026-05-04 02:47 | 14.31298 | -90.30630 | 11143 ft | 305 kts | 302° |
| 2026-05-04 02:47 | 14.32357 | -90.32512 | 10869 ft | 302 kts | 303° |
| 2026-05-04 02:47 | 14.33406 | -90.34377 | 10600 ft | 299 kts | 303° |
| 2026-05-04 02:47 | 14.34447 | -90.36228 | 10336 ft | 297 kts | 303° |
| 2026-05-04 02:48 | 14.35481 | -90.38068 | 10053 ft | 295 kts | 303° |
| 2026-05-04 02:48 | 14.36489 | -90.39863 | 9758 ft | 290 kts | 303° |
| 2026-05-04 02:48 | 14.37492 | -90.41646 | 9467 ft | 284 kts | 303° |
| 2026-05-04 02:48 | 14.38473 | -90.43394 | 9193 ft | 278 kts | 303° |
| 2026-05-04 02:49 | 14.39434 | -90.45104 | 8918 ft | 273 kts | 303° |
| 2026-05-04 02:49 | 14.40377 | -90.46782 | 8647 ft | 268 kts | 303° |
| 2026-05-04 02:49 | 14.41303 | -90.48432 | 8375 ft | 264 kts | 303° |
| 2026-05-04 02:49 | 14.42217 | -90.50060 | 7985 ft | 263 kts | 303° |
| 2026-05-04 02:50 | 14.43175 | -90.51672 | 7578 ft | 258 kts | 309° |
| 2026-05-04 02:50 | 14.44322 | -90.53026 | 7341 ft | 242 kts | 321° |
| 2026-05-04 02:50 | 14.45629 | -90.54013 | 7102 ft | 222 kts | 334° |
| 2026-05-04 02:50 | 14.46978 | -90.54624 | 6878 ft | 202 kts | 345° |
| 2026-05-04 02:51 | 14.48256 | -90.54948 | 6700 ft | 182 kts | 353° |
| 2026-05-04 02:51 | 14.49476 | -90.55081 | 6418 ft | 171 kts | 358° |
| 2026-05-04 02:51 | 14.50620 | -90.55040 | 6250 ft | 154 kts | 8° |
| 2026-05-04 02:51 | 14.51675 | -90.54841 | 6014 ft | 154 kts | 14° |
| 2026-05-04 02:52 | 14.52701 | -90.54553 | 5808 ft | 151 kts | 17° |
| 2026-05-04 02:52 | 14.53694 | -90.54237 | 5641 ft | 147 kts | 19° |
| 2026-05-04 02:52 | 14.54696 | -90.53914 | 5436 ft | 150 kts | 17° |
| 2026-05-04 02:52 | 14.55686 | -90.53597 | 5227 ft | 149 kts | 17° |
| 2026-05-04 02:53 | 14.56672 | -90.53276 | 5013 ft | 153 kts | 17° |
| 2026-05-04 02:53 | 14.57750 | -90.52933 | 5304 ft | 169 kts | 18° |
| 2026-05-04 02:53 | 14.58880 | -90.52540 | 6140 ft | 170 kts | 19° |
| 2026-05-04 02:53 | 14.59992 | -90.52126 | 6941 ft | 168 kts | 19° |
| 2026-05-04 02:54 | 14.61106 | -90.51774 | 7630 ft | 179 kts | 17° |
| 2026-05-04 02:54 | 14.62348 | -90.51374 | 8437 ft | 185 kts | 20° |
| 2026-05-04 02:54 | 14.63499 | -90.50944 | 9675 ft | 166 kts | 22° |
| 2026-05-04 02:54 | 14.64630 | -90.50591 | 10392 ft | 181 kts | 18° |
| 2026-05-04 02:55 | 14.67398 | -90.49807 | 10883 ft | 232 kts | 18° |
| 2026-05-04 02:55 | 14.68971 | -90.49313 | 10894 ft | 240 kts | 19° |
| 2026-05-04 02:55 | 14.70578 | -90.48793 | 10889 ft | 244 kts | 19° |
| 2026-05-04 02:56 | 14.72206 | -90.48269 | 10862 ft | 243 kts | 19° |
| 2026-05-04 02:56 | 14.73812 | -90.47754 | 10871 ft | 247 kts | 19° |
| 2026-05-04 02:56 | 14.75443 | -90.47233 | 10901 ft | 244 kts | 19° |
| 2026-05-04 02:56 | 14.77058 | -90.46718 | 10899 ft | 242 kts | 19° |
| 2026-05-04 02:57 | 14.78674 | -90.46249 | 10899 ft | 241 kts | 14° |
| 2026-05-04 02:57 | 14.80344 | -90.46067 | 10912 ft | 243 kts | 1° |
| 2026-05-04 02:57 | 14.81992 | -90.46453 | 10899 ft | 248 kts | 332° |
| 2026-05-04 02:57 | 14.83278 | -90.47699 | 10952 ft | 264 kts | 304° |
| 2026-05-04 02:58 | 14.83884 | -90.49460 | 11012 ft | 261 kts | 275° |
| 2026-05-04 02:58 | 14.83598 | -90.51283 | 11045 ft | 258 kts | 244° |
| 2026-05-04 02:58 | 14.82489 | -90.52704 | 11050 ft | 254 kts | 214° |
| 2026-05-04 02:58 | 14.80882 | -90.53412 | 10959 ft | 254 kts | 187° |
| 2026-05-04 02:59 | 14.79103 | -90.53511 | 10731 ft | 258 kts | 177° |
| 2026-05-04 02:59 | 14.77310 | -90.53486 | 10500 ft | 257 kts | 176° |
| 2026-05-04 02:59 | 14.75518 | -90.53453 | 10272 ft | 258 kts | 176° |
| 2026-05-04 02:59 | 14.73747 | -90.53423 | 10083 ft | 258 kts | 176° |
| 2026-05-04 03:00 | 14.71944 | -90.53400 | 10022 ft | 259 kts | 177° |
| 2026-05-04 03:00 | 14.70140 | -90.53381 | 10008 ft | 258 kts | 177° |
| 2026-05-04 03:00 | 14.68341 | -90.53365 | 9847 ft | 263 kts | 177° |
| 2026-05-04 03:00 | 14.66493 | -90.53351 | 9598 ft | 264 kts | 177° |
| 2026-05-04 03:01 | 14.64674 | -90.53339 | 9439 ft | 259 kts | 177° |
| 2026-05-04 03:01 | 14.62913 | -90.53328 | 9306 ft | 253 kts | 177° |
| 2026-05-04 03:01 | 14.61188 | -90.53318 | 9202 ft | 243 kts | 177° |
| 2026-05-04 03:01 | 14.59536 | -90.53308 | 9061 ft | 232 kts | 177° |
| 2026-05-04 03:02 | 14.57968 | -90.53310 | 8990 ft | 226 kts | 182° |
| 2026-05-04 03:02 | 14.56516 | -90.53865 | 9000 ft | 223 kts | 215° |
| 2026-05-04 03:02 | 14.55262 | -90.54904 | 8610 ft | 243 kts | 221° |
| 2026-05-04 03:02 | 14.54000 | -90.56056 | 8312 ft | 242 kts | 221° |
| 2026-05-04 03:03 | 14.52748 | -90.57197 | 8058 ft | 238 kts | 221° |
| 2026-05-04 03:03 | 14.51509 | -90.58313 | 7781 ft | 235 kts | 222° |
| 2026-05-04 03:03 | 14.50229 | -90.59358 | 7492 ft | 234 kts | 205° |
| 2026-05-04 03:03 | 14.48668 | -90.59558 | 7238 ft | 225 kts | 161° |
| 2026-05-04 03:04 | 14.47436 | -90.58713 | 6996 ft | 208 kts | 118° |
| 2026-05-04 03:04 | 14.47152 | -90.57371 | 6812 ft | 185 kts | 71° |
| 2026-05-04 03:04 | 14.47847 | -90.56407 | 6676 ft | 162 kts | 26° |
| 2026-05-04 03:04 | 14.48877 | -90.55943 | 6576 ft | 163 kts | 24° |
| 2026-05-04 03:05 | 14.49912 | -90.55492 | 6403 ft | 159 kts | 20° |
| 2026-05-04 03:05 | 14.50941 | -90.55135 | 6239 ft | 156 kts | 17° |
| 2026-05-04 03:05 | 14.51974 | -90.54801 | 6004 ft | 156 kts | 17° |
| 2026-05-04 03:05 | 14.52995 | -90.54472 | 5754 ft | 154 kts | 18° |
| 2026-05-04 03:06 | 14.54020 | -90.54139 | 5523 ft | 156 kts | 18° |
| 2026-05-04 03:06 | 14.55043 | -90.53804 | 5354 ft | 151 kts | 16° |
| 2026-05-04 03:06 | 14.56056 | -90.53480 | 5143 ft | 155 kts | 17° |
| 2026-05-04 03:06 | 14.57086 | -90.53146 | 4930 ft | 155 kts | 17° |
| 2026-05-04 03:07 | 14.58041 | -90.52842 | 4920 ft | 122 kts | 17° |
| 2026-05-04 03:07 | 14.58639 | -90.52651 | 4929 ft | 58 kts | 17° |
| 2026-05-04 03:07 | 14.58850 | -90.52582 | 4934 ft | 20 kts | 17° |
| 2026-05-04 03:07 | 14.58968 | -90.52544 | 4938 ft | 16 kts | 17° |
| 2026-05-04 03:08 | 14.59058 | -90.52516 | 4940 ft | 13 kts | 17° |
| 2026-05-04 03:08 | 14.59142 | -90.52490 | 4942 ft | 12 kts | 17° |
| 2026-05-04 03:08 | 14.59204 | -90.52521 | 4942 ft | 10 kts | 274° |
| 2026-05-04 03:08 | 14.59183 | -90.52542 | 4942 ft | 7 kts | 203° |
| 2026-05-04 03:09 | 14.59107 | -90.52568 | 4940 ft | 15 kts | 200° |
| 2026-05-04 03:09 | 14.58962 | -90.52617 | 4936 ft | 27 kts | 197° |
| 2026-05-04 03:09 | 14.58812 | -90.52665 | 4933 ft | 17 kts | 205° |
| 2026-05-04 03:09 | 14.58827 | -90.52763 | 4933 ft | 17 kts | 325° |
| 2026-05-04 03:10 | 14.58936 | -90.52771 | 4935 ft | 16 kts | 16° |
| 2026-05-04 03:10 | 14.59008 | -90.52749 | 4937 ft | 6 kts | 16° |
| 2026-05-04 03:10 | 14.59017 | -90.52754 | 4937 ft | 1 kts | 315° |
| 2026-05-04 03:10 | 14.59022 | -90.52765 | 4937 ft | 2 kts | 295° |
| 2026-05-04 03:11 | 14.59029 | -90.52784 | 4937 ft | 3 kts | 288° |
| 2026-05-04 03:11 | 14.59038 | -90.52811 | 4936 ft | 4 kts | 287° |
| 2026-05-04 03:11 | 14.59046 | -90.52839 | 4937 ft | 3 kts | 285° |
| 2026-05-04 03:11 | 14.59046 | -90.52841 | 4937 ft | 0 kts | 285° |